MTPPMKJS

Guest
Details From MTPP - TOUSSAINT LOUVERTURE INTL
To MKJS - Sangster Intl
Flight Number -
Tags decoded
Created
Modified
Stats Distance 332 nm / 615 km
Max Altitude 0 ft / 0 m
Waypoints 6
Social Downloads 1
Likes 0
Share VATSIM

Download

Looking for another format? Having issues loading an existing format? Contact us
Advertisement - Login to hide

Notes

Requested: MTPP MAROT G633 MLY MKJS

Route

MTPP MAROT G633 MLY MKJS

ID Type Via Altitude Latitude Longitude Leg Dist Tot Dist Heading (true) Name
O MTPP APT - 0 ft / 0 m 18.58005˚ -72.29254˚ - 0 nm - TOUSSAINT LOUVERTURE INTL
MAROT FIX - 0 ft / 0 m 18.49517˚ -72.91222˚ 35 nm 35 nm 262° / 262° -
BENET FIX G633 (AWY-LO) 0 ft / 0 m 18.24956˚ -74.66178˚ 100 nm 136 nm 262° / 261° -
PISUL FIX G633 (AWY-LO) 0 ft / 0 m 18.03500˚ -76.09583˚ 82 nm 219 nm 261° / 261° -
MLY VOR G633 (AWY-LO) 0 ft / 0 m 17.93025˚ -76.77764˚ 39 nm 258 nm 261° / 261° MANLEY VOR-DME
O MKJS APT - 0 ft / 0 m 18.50355˚ -77.91370˚ 73 nm 332 nm 298° / 298° Sangster Intl

Altitude Profile

Advertisement - Login to hide

Weather


0- 5 10 15 20 25 30 35+ Temperature / ° C

Clouds and Precipitation
Forecast for 2017-12-14 18:00 UTC. Updated 2 hours ago

Ground ~20,000 ft ~40,000 ft Winds

MTPP

Details ICAO MTPP (PAP)
Name TOUSSAINT LOUVERTURE INTL
Region Haiti
Timezone America/Port-au-Prince (UTC-5.0)
Stats Elevation 122 ft / 37 m (AMSL)
Location 18.580051° -72.292540°
Runways 1
Magnetic Variation 10.192° W

METAR

MTPP 141800Z 35005KT 9999 FEW026 32/20 Q1012 A2991

Decode

TAF

TAF MTPP 141700Z 1418/1518 11010KT 9999 FEW026 BECMG 1422/1502 23006KT BECMG 1504/1508 VRB02KT 7000 NSC FM151300 10008KT 9999 FEW024

Decode

Departure Runways

ID Width Length Bearing (true) Bearing (mag) Surface Threshold Offset Overrun Length
10 141 ft / 43 m 9,963 ft / 3,037 m 86.96° 97.15° Asphalt 0 ft / 0 m 0 ft / 0 m
28 141 ft / 43 m 9,963 ft / 3,037 m 266.97° 277.16° Asphalt 0 ft / 0 m 0 ft / 0 m

MKJS

Details ICAO MKJS (MBJ)
Name Sangster Intl
Region Jamaica
Timezone America/Jamaica (UTC-5.0)
Stats Elevation 6 ft / 2 m (AMSL)
Location 18.503549° -77.913698°
Runways 1
Magnetic Variation 6.956° W

METAR

MKJS 141830Z 08009KT 2000 SHRA BKN018 SCT036 27/25 Q1013

Decode

TAF

TAF MKJS 141715Z 1418/1518 06020KT 9999 SCT018 BKN035 TEMPO 1419/1507 6000 SHRA BKN018 BKN032 BECMG 1501/1503 07007KT FEW024 SCT038

Decode

Destination Runways

ID Width Length Bearing (true) Bearing (mag) Surface Threshold Offset Overrun Length
07 161 ft / 49 m 8,495 ft / 2,589 m 65.37° 72.33° Asphalt 220 ft / 67 m 312 ft / 95 m
25 161 ft / 49 m 8,495 ft / 2,589 m 245.37° 252.33° Asphalt 577 ft / 176 m 200 ft / 61 m

Approach Navaids

Runway Type Ident Frequency Range Bearing (true) Bearing (mag) Slope Elevation
07 Localiser ISIA 109.50 MHz 18 nm / 33 km 65.41° 72.36° - 4 ft / 1 m (AMSL)
07 Glidescope ISIA 109.50 MHz 10 nm / 19 km 65.37° 72.33° 3.00° 4 ft / 1 m (AMSL)

Popular Alternatives